createdAt,value
2022-09-29T00:01:04.745Z,13.43
2022-09-29T00:06:04.219Z,13.00
2022-09-29T00:08:31.546Z,12.73
2022-09-29T00:10:58.720Z,12.10
2022-09-29T00:13:26.201Z,11.80
2022-09-29T00:16:00.883Z,11.52
2022-09-29T00:18:29.982Z,11.45
2022-09-29T00:21:05.481Z,11.27
2022-09-29T00:23:34.100Z,12.32
2022-09-29T00:26:03.285Z,11.43
2022-09-29T00:28:30.959Z,11.60
2022-09-29T00:31:00.661Z,10.98
2022-09-29T00:33:35.426Z,10.95
2022-09-29T00:36:12.597Z,11.57
2022-09-29T00:38:40.731Z,10.52
2022-09-29T00:41:09.004Z,11.68
2022-09-29T00:43:54.832Z,11.65
2022-09-29T00:46:37.359Z,12.20
2022-09-29T00:49:18.227Z,10.75
2022-09-29T00:51:51.610Z,10.63
2022-09-29T00:54:20.262Z,10.98
2022-09-29T00:56:50.112Z,12.05
2022-09-29T00:59:25.332Z,11.25
2022-09-29T01:01:52.674Z,10.07
2022-09-29T01:04:20.865Z,10.50
2022-09-29T01:06:51.657Z,11.32
2022-09-29T01:09:22.534Z,11.30
2022-09-29T01:11:52.779Z,11.47
2022-09-29T01:14:20.846Z,10.82
2022-09-29T01:16:47.962Z,11.20
2022-09-29T01:19:30.064Z,10.85
2022-09-29T01:22:15.011Z,11.00
2022-09-29T01:25:06.259Z,11.45
2022-09-29T01:27:54.911Z,11.07
2022-09-29T01:30:46.578Z,10.63
2022-09-29T01:36:15.443Z,10.10
2022-09-29T01:39:02.020Z,11.15
2022-09-29T01:41:46.831Z,11.23
2022-09-29T01:44:21.474Z,10.73
2022-09-29T01:46:59.719Z,11.73
2022-09-29T01:49:31.571Z,11.68
2022-09-29T01:54:50.176Z,11.40
2022-09-29T01:57:34.551Z,11.18
2022-09-29T02:00:09.698Z,12.15
2022-09-29T02:02:46.837Z,12.40
2022-09-29T02:05:21.461Z,11.65
2022-09-29T02:07:52.941Z,10.98
2022-09-29T02:10:26.979Z,11.45
2022-09-29T02:12:56.970Z,12.30
2022-09-29T02:15:28.943Z,11.63
2022-09-29T02:18:01.536Z,11.85
2022-09-29T02:20:29.199Z,12.10
2022-09-29T02:22:56.190Z,11.63
2022-09-29T02:25:23.800Z,12.07
2022-09-29T02:27:51.551Z,11.77
2022-09-29T02:30:18.603Z,11.30
2022-09-29T02:32:47.522Z,12.05
2022-09-29T02:35:15.531Z,12.10
2022-09-29T02:37:47.804Z,12.07
2022-09-29T02:40:25.419Z,12.20
2022-09-29T02:42:52.445Z,10.73
2022-09-29T02:45:36.883Z,11.85
2022-09-29T02:48:39.885Z,12.15
2022-09-29T02:51:12.384Z,10.77
2022-09-29T02:54:10.301Z,11.52
2022-09-29T02:56:47.172Z,10.82
2022-09-29T02:59:20.600Z,11.85
2022-09-29T03:01:50.619Z,11.15
2022-09-29T03:04:19.891Z,11.05
2022-09-29T03:06:46.795Z,11.07
2022-09-29T03:09:13.616Z,10.65
2022-09-29T03:11:40.986Z,10.77
2022-09-29T03:14:08.277Z,10.70
2022-09-29T03:16:37.365Z,10.25
2022-09-29T03:19:05.500Z,9.93
2022-09-29T03:21:32.820Z,10.73
2022-09-29T03:23:59.948Z,11.52
2022-09-29T03:26:27.563Z,11.55
2022-09-29T03:28:54.362Z,10.95
2022-09-29T03:31:21.171Z,10.90
2022-09-29T03:33:48.454Z,10.82
2022-09-29T03:36:15.593Z,12.02
2022-09-29T03:38:44.082Z,11.93
2022-09-29T03:41:11.073Z,11.93
2022-09-29T03:43:38.308Z,11.93
2022-09-29T03:46:06.053Z,11.57
2022-09-29T03:48:35.211Z,12.07
2022-09-29T03:51:02.346Z,12.40
2022-09-29T03:53:29.367Z,11.68
2022-09-29T03:55:56.348Z,12.43
2022-09-29T03:58:23.204Z,12.77
2022-09-29T04:00:50.157Z,13.10
2022-09-29T04:03:17.614Z,13.52
2022-09-29T04:05:48.489Z,13.88
2022-09-29T04:08:16.191Z,13.60
2022-09-29T04:10:46.975Z,12.88
2022-09-29T04:13:17.793Z,13.45
2022-09-29T04:15:47.734Z,13.52
2022-09-29T04:18:14.900Z,14.30
2022-09-29T04:20:41.918Z,13.45
2022-09-29T04:23:08.993Z,12.82
2022-09-29T04:25:35.797Z,13.90
2022-09-29T04:28:02.646Z,13.15
2022-09-29T04:30:29.644Z,14.40
2022-09-29T04:32:56.481Z,13.13
2022-09-29T04:35:23.528Z,14.27
2022-09-29T04:37:57.210Z,14.77
2022-09-29T04:40:25.135Z,13.55
2022-09-29T04:42:52.484Z,13.32
2022-09-29T04:45:19.443Z,13.95
2022-09-29T04:47:46.285Z,12.70
2022-09-29T04:50:13.373Z,13.65
2022-09-29T04:52:43.296Z,12.65
2022-09-29T04:55:11.446Z,12.57
2022-09-29T04:57:41.068Z,11.95
2022-09-29T05:00:09.046Z,13.25
2022-09-29T05:02:36.792Z,12.88
2022-09-29T05:05:04.533Z,13.40
2022-09-29T05:07:31.416Z,12.88
2022-09-29T05:09:58.210Z,13.38
2022-09-29T05:12:25.215Z,12.93
2022-09-29T05:14:52.127Z,12.88
2022-09-29T05:17:18.957Z,13.90
2022-09-29T05:19:46.058Z,12.32
2022-09-29T05:22:13.019Z,12.43
2022-09-29T05:24:39.887Z,14.30
2022-09-29T05:27:07.008Z,13.25
2022-09-29T05:29:34.277Z,13.10
2022-09-29T05:32:01.430Z,12.57
2022-09-29T05:34:28.609Z,12.48
2022-09-29T05:36:56.504Z,13.35
2022-09-29T05:39:23.490Z,12.05
2022-09-29T05:41:50.578Z,12.27
2022-09-29T05:44:17.458Z,11.77
2022-09-29T05:46:44.269Z,12.48
2022-09-29T05:49:11.421Z,12.40
2022-09-29T05:51:38.437Z,11.77
2022-09-29T05:54:05.632Z,12.80
2022-09-29T05:56:32.771Z,12.65
2022-09-29T05:59:01.498Z,11.80
2022-09-29T06:01:28.847Z,10.73
2022-09-29T06:03:56.956Z,11.38
2022-09-29T06:06:26.419Z,11.70
2022-09-29T06:08:54.037Z,11.75
2022-09-29T06:11:39.170Z,11.27
2022-09-29T06:14:06.194Z,11.07
2022-09-29T06:16:33.840Z,10.82
2022-09-29T06:19:01.882Z,11.65
2022-09-29T06:21:30.563Z,12.93
2022-09-29T06:23:58.550Z,12.10
2022-09-29T06:26:27.632Z,11.68
2022-09-29T06:28:55.762Z,11.63
2022-09-29T06:31:25.378Z,12.48
2022-09-29T06:33:52.647Z,11.25
2022-09-29T06:36:46.445Z,11.10
2022-09-29T06:39:14.951Z,11.82
2022-09-29T06:41:48.697Z,10.73
2022-09-29T06:44:16.149Z,12.20
2022-09-29T06:46:43.427Z,11.65
2022-09-29T06:49:15.445Z,11.82
2022-09-29T06:51:46.343Z,11.35
2022-09-29T06:54:20.432Z,11.75
2022-09-29T06:56:52.234Z,11.45
2022-09-29T06:59:19.558Z,12.05
2022-09-29T07:01:50.859Z,10.73
2022-09-29T07:04:20.196Z,11.43
2022-09-29T07:06:48.148Z,10.02
2022-09-29T07:09:17.873Z,9.63
2022-09-29T07:11:50.965Z,9.63
2022-09-29T07:14:20.644Z,10.18
2022-09-29T07:16:48.525Z,10.60
2022-09-29T07:19:18.433Z,10.15
2022-09-29T07:21:47.313Z,9.95
2022-09-29T07:24:14.707Z,10.18
2022-09-29T07:26:41.963Z,10.50
2022-09-29T07:29:15.057Z,9.80
2022-09-29T07:31:50.658Z,10.98
2022-09-29T07:34:20.670Z,9.85
2022-09-29T07:36:47.538Z,10.05
2022-09-29T07:39:14.527Z,9.25
2022-09-29T07:41:41.825Z,9.07
2022-09-29T07:44:08.719Z,9.25
2022-09-29T07:46:36.142Z,9.02
2022-09-29T07:49:03.417Z,8.85
2022-09-29T07:51:30.387Z,9.57
2022-09-29T07:54:02.024Z,9.05
2022-09-29T07:56:29.045Z,8.27
2022-09-29T07:58:56.292Z,9.43
2022-09-29T08:01:23.264Z,9.73
2022-09-29T08:03:53.254Z,9.18
2022-09-29T08:06:21.227Z,9.43
2022-09-29T08:09:00.987Z,9.57
2022-09-29T08:11:32.436Z,9.25
2022-09-29T08:14:01.152Z,9.98
2022-09-29T08:16:28.468Z,9.43
2022-09-29T08:18:55.742Z,8.75
2022-09-29T08:21:22.718Z,8.27
2022-09-29T08:23:49.746Z,8.38
2022-09-29T08:26:20.586Z,9.32
2022-09-29T08:28:56.200Z,9.07
2022-09-29T08:31:29.786Z,8.30
2022-09-29T08:34:01.328Z,8.10
2022-09-29T08:36:28.732Z,9.15
2022-09-29T08:38:57.802Z,9.07
2022-09-29T08:41:49.822Z,9.63
2022-09-29T08:44:37.007Z,8.73
2022-09-29T08:47:42.482Z,9.80
2022-09-29T08:50:36.814Z,8.95
2022-09-29T08:53:18.441Z,8.80
2022-09-29T08:55:58.314Z,9.98
2022-09-29T08:58:25.676Z,9.52
2022-09-29T09:01:27.907Z,9.68
2022-09-29T09:04:00.733Z,10.07
2022-09-29T09:06:46.087Z,8.25
2022-09-29T09:09:45.448Z,9.27
2022-09-29T09:12:45.323Z,8.32
2022-09-29T09:15:24.214Z,9.15
2022-09-29T09:18:10.112Z,9.23
2022-09-29T09:20:48.274Z,9.77
2022-09-29T09:23:21.599Z,8.57
2022-09-29T09:25:52.334Z,9.48
2022-09-29T09:28:25.140Z,9.63
2022-09-29T09:30:58.187Z,8.18
2022-09-29T09:33:36.661Z,7.97
2022-09-29T09:36:11.445Z,8.95
2022-09-29T09:38:53.927Z,9.18
2022-09-29T09:41:24.567Z,8.35
2022-09-29T09:44:05.292Z,7.72
2022-09-29T09:46:43.478Z,8.40
2022-09-29T09:49:32.665Z,8.27
2022-09-29T09:52:27.554Z,8.02
2022-09-29T09:55:05.381Z,7.32
2022-09-29T09:57:52.487Z,7.72
2022-09-29T10:00:26.736Z,6.85
2022-09-29T10:02:56.246Z,6.60
2022-09-29T10:05:34.253Z,6.70
2022-09-29T10:08:01.497Z,6.85
2022-09-29T10:10:29.815Z,7.80
2022-09-29T10:13:06.514Z,7.90
2022-09-29T10:15:52.783Z,7.07
2022-09-29T10:18:29.673Z,7.13
2022-09-29T10:20:57.112Z,7.68
2022-09-29T10:23:28.530Z,8.10
2022-09-29T10:26:12.787Z,7.25
2022-09-29T10:28:45.644Z,7.20
2022-09-29T10:31:22.938Z,7.38
2022-09-29T10:33:57.754Z,6.90
2022-09-29T10:36:29.042Z,7.32
2022-09-29T10:39:02.356Z,7.90
2022-09-29T10:41:31.559Z,8.00
2022-09-29T10:44:20.777Z,8.13
2022-09-29T10:46:52.924Z,8.98
2022-09-29T10:49:23.024Z,8.50
2022-09-29T10:52:01.768Z,8.48
2022-09-29T10:54:34.692Z,7.85
2022-09-29T10:57:12.690Z,8.07
2022-09-29T10:59:51.125Z,9.30
2022-09-29T11:02:25.908Z,9.05
2022-09-29T11:04:56.069Z,9.90
2022-09-29T11:07:23.088Z,8.63
2022-09-29T11:09:51.306Z,8.73
2022-09-29T11:12:32.082Z,8.45
2022-09-29T11:15:00.605Z,8.13
2022-09-29T11:17:49.324Z,9.07
2022-09-29T11:20:16.513Z,8.27
2022-09-29T11:22:55.487Z,8.40
2022-09-29T11:25:52.047Z,8.05
2022-09-29T11:28:46.742Z,7.95
2022-09-29T11:31:32.089Z,8.80
2022-09-29T11:34:19.856Z,8.90
2022-09-29T11:37:09.492Z,7.93
2022-09-29T11:39:51.090Z,9.05
2022-09-29T11:42:39.894Z,9.98
2022-09-29T11:45:11.102Z,9.07
2022-09-29T11:50:23.835Z,8.90
2022-09-29T11:53:11.683Z,8.77
2022-09-29T11:56:00.506Z,8.98
2022-09-29T11:58:49.039Z,9.52
2022-09-29T12:01:30.342Z,8.02
2022-09-29T12:04:16.160Z,8.27
2022-09-29T12:06:55.533Z,9.00
2022-09-29T12:09:34.432Z,8.98
2022-09-29T12:12:25.551Z,8.52
2022-09-29T12:15:20.443Z,8.40
2022-09-29T12:17:53.679Z,8.18
2022-09-29T12:20:28.527Z,8.55
2022-09-29T12:23:01.029Z,8.30
2022-09-29T12:25:31.209Z,8.48
2022-09-29T12:28:02.316Z,9.00
2022-09-29T12:30:35.630Z,8.85
2022-09-29T12:33:08.506Z,8.38
2022-09-29T12:35:42.234Z,8.10
2022-09-29T12:38:35.716Z,8.38
2022-09-29T12:41:23.360Z,7.70
2022-09-29T12:44:13.541Z,8.30
2022-09-29T12:46:58.847Z,8.70
2022-09-29T12:49:33.359Z,9.25
2022-09-29T12:52:06.446Z,10.18
2022-09-29T12:54:57.417Z,9.25
2022-09-29T12:57:33.435Z,9.52
2022-09-29T13:00:11.491Z,10.15
2022-09-29T13:02:56.669Z,9.05
2022-09-29T13:05:33.629Z,9.48
2022-09-29T13:08:40.461Z,8.95
2022-09-29T13:11:38.643Z,9.27
2022-09-29T13:14:18.372Z,9.40
2022-09-29T13:17:17.082Z,9.52
2022-09-29T13:19:57.402Z,9.75
2022-09-29T13:22:56.491Z,9.77
2022-09-29T13:25:30.281Z,9.05
2022-09-29T13:27:58.670Z,8.93
2022-09-29T13:30:29.239Z,8.55
2022-09-29T13:33:10.490Z,9.07
2022-09-29T13:35:43.704Z,9.43
2022-09-29T13:38:20.736Z,9.38
2022-09-29T13:41:21.627Z,10.18
2022-09-29T13:43:51.682Z,9.82
2022-09-29T13:46:30.854Z,8.98
2022-09-29T13:49:09.356Z,9.90
2022-09-29T13:52:12.271Z,8.15
2022-09-29T13:54:43.199Z,8.15
2022-09-29T13:57:13.450Z,8.40
2022-09-29T13:59:44.734Z,8.90
2022-09-29T14:02:33.980Z,8.73
2022-09-29T14:05:01.641Z,8.10
2022-09-29T14:07:49.522Z,9.23
2022-09-29T14:10:24.445Z,8.55
2022-09-29T14:13:13.061Z,8.68
2022-09-29T14:15:50.006Z,8.77
2022-09-29T14:18:23.074Z,9.63
2022-09-29T14:21:36.012Z,10.15
2022-09-29T14:24:02.948Z,10.60
2022-09-29T14:26:51.354Z,10.05
2022-09-29T14:29:23.138Z,9.77
2022-09-29T14:31:55.524Z,10.52
2022-09-29T14:34:25.424Z,9.20
2022-09-29T14:36:55.953Z,8.80
2022-09-29T14:39:26.833Z,9.07
2022-09-29T14:41:54.563Z,9.95
2022-09-29T14:44:50.885Z,9.40
2022-09-29T14:48:08.181Z,9.20
2022-09-29T14:51:12.240Z,8.75
2022-09-29T14:53:54.687Z,9.80
2022-09-29T14:56:27.561Z,9.98
2022-09-29T14:59:03.176Z,9.35
2022-09-29T15:01:31.852Z,10.98
2022-09-29T15:04:11.447Z,11.30
2022-09-29T15:06:47.930Z,10.13
2022-09-29T15:09:20.977Z,12.32
2022-09-29T15:11:53.289Z,11.27
2022-09-29T15:14:28.085Z,10.05
2022-09-29T15:17:54.011Z,10.40
2022-09-29T15:20:53.439Z,10.15
2022-09-29T15:23:45.052Z,10.13
2022-09-29T15:26:14.144Z,9.80
2022-09-29T15:28:42.908Z,10.60
2022-09-29T15:31:16.931Z,10.05
2022-09-29T15:33:45.603Z,10.35
2022-09-29T15:36:22.014Z,10.23
2022-09-29T15:39:00.617Z,10.57
2022-09-29T15:41:31.608Z,10.45
2022-09-29T15:44:01.439Z,9.73
2022-09-29T15:46:39.237Z,10.88
2022-09-29T15:49:21.448Z,11.00
2022-09-29T15:52:02.319Z,11.75
2022-09-29T15:54:34.908Z,10.93
2022-09-29T15:57:58.071Z,10.73
2022-09-29T16:00:26.876Z,10.52
2022-09-29T16:03:15.570Z,11.27
2022-09-29T16:05:52.372Z,10.50
2022-09-29T16:08:23.130Z,11.05
2022-09-29T16:10:56.535Z,11.43
2022-09-29T16:13:31.223Z,11.40
2022-09-29T16:16:02.259Z,12.35
2022-09-29T16:18:41.240Z,10.75
2022-09-29T16:21:23.790Z,12.25
2022-09-29T16:24:05.622Z,11.70
2022-09-29T16:26:37.105Z,10.88
2022-09-29T16:29:23.587Z,11.80
2022-09-29T16:31:52.177Z,10.77
2022-09-29T16:34:24.067Z,12.85
2022-09-29T16:37:01.700Z,13.70
2022-09-29T16:39:40.443Z,11.68
2022-09-29T16:42:20.531Z,11.90
2022-09-29T16:44:50.765Z,12.30
2022-09-29T16:47:24.068Z,11.80
2022-09-29T16:49:56.722Z,11.63
2022-09-29T16:52:42.146Z,12.55
2022-09-29T16:55:24.603Z,13.60
2022-09-29T16:57:54.991Z,13.93
2022-09-29T17:00:22.493Z,12.95
2022-09-29T17:02:55.414Z,13.75
2022-09-29T17:05:24.380Z,13.82
2022-09-29T17:07:59.785Z,13.93
2022-09-29T17:10:27.562Z,13.38
2022-09-29T17:12:55.342Z,13.27
2022-09-29T17:15:23.123Z,13.45
2022-09-29T17:17:51.326Z,14.60
2022-09-29T17:20:22.084Z,15.13
2022-09-29T17:22:51.955Z,13.70
2022-09-29T17:25:19.334Z,13.68
2022-09-29T17:28:05.387Z,14.27
2022-09-29T17:30:32.752Z,13.63
2022-09-29T17:33:00.554Z,14.52
2022-09-29T17:35:37.218Z,16.23
2022-09-29T17:38:07.627Z,15.80
2022-09-29T17:40:38.914Z,15.45
2022-09-29T17:45:35.414Z,14.88
2022-09-29T17:48:03.356Z,14.90
2022-09-29T17:50:51.188Z,14.75
2022-09-29T17:53:19.154Z,14.07
2022-09-29T17:55:49.985Z,15.20
2022-09-29T17:58:18.735Z,14.35
2022-09-29T18:00:51.507Z,15.35
2022-09-29T18:03:21.253Z,14.05
2022-09-29T18:05:59.861Z,15.10
2022-09-29T18:08:29.343Z,15.10
2022-09-29T18:10:59.183Z,14.50
2022-09-29T18:13:28.339Z,15.10
2022-09-29T18:15:56.610Z,15.60
2022-09-29T18:18:24.658Z,16.23
2022-09-29T18:20:51.926Z,15.68
2022-09-29T18:23:20.848Z,16.50
2022-09-29T18:25:50.217Z,15.38
2022-09-29T18:28:18.379Z,14.57
2022-09-29T18:30:48.823Z,15.23
2022-09-29T18:33:18.845Z,14.73
2022-09-29T18:35:51.804Z,16.27
2022-09-29T18:38:19.727Z,15.25
2022-09-29T18:40:47.375Z,16.40
2022-09-29T18:43:14.685Z,15.65
2022-09-29T18:45:43.486Z,15.70
2022-09-29T18:48:15.638Z,15.57
2022-09-29T18:50:50.840Z,16.67
2022-09-29T18:53:20.251Z,17.17
2022-09-29T18:55:49.520Z,15.98
2022-09-29T18:58:18.870Z,16.10
2022-09-29T19:00:55.226Z,16.05
2022-09-29T19:03:25.006Z,16.13
2022-09-29T19:05:52.124Z,18.13
2022-09-29T19:08:19.069Z,17.17
2022-09-29T19:11:04.819Z,18.08
2022-09-29T19:13:31.693Z,17.10
2022-09-29T19:15:59.541Z,16.42
2022-09-29T19:18:27.297Z,16.48
2022-09-29T19:20:59.701Z,16.90
2022-09-29T19:23:27.997Z,15.48
2022-09-29T19:25:58.425Z,17.23
2022-09-29T19:28:27.567Z,16.47
2022-09-29T19:30:55.981Z,16.67
2022-09-29T19:33:23.152Z,17.23
2022-09-29T19:35:54.604Z,16.75
2022-09-29T19:38:22.898Z,17.30
2022-09-29T19:40:51.642Z,17.73
2022-09-29T19:43:21.544Z,16.27
2022-09-29T19:45:50.208Z,17.02
2022-09-29T19:48:19.630Z,17.58
2022-09-29T19:51:06.199Z,18.13
2022-09-29T19:53:34.881Z,16.63
2022-09-29T19:56:02.059Z,16.85
2022-09-29T19:58:29.301Z,17.35
2022-09-29T20:00:57.568Z,17.85
2022-09-29T20:03:24.757Z,19.42
2022-09-29T20:05:51.685Z,18.48
2022-09-29T20:08:18.707Z,18.52
2022-09-29T20:10:45.539Z,18.83
2022-09-29T20:13:14.760Z,20.23
2022-09-29T20:15:44.961Z,19.65
2022-09-29T20:18:13.543Z,19.98
2022-09-29T20:20:42.491Z,18.83
2022-09-29T20:23:09.690Z,18.33
2022-09-29T20:25:36.716Z,17.13
2022-09-29T20:28:05.332Z,17.70
2022-09-29T20:30:32.637Z,17.48
2022-09-29T20:32:59.617Z,17.58
2022-09-29T20:35:26.745Z,19.48
2022-09-29T20:37:54.153Z,17.42
2022-09-29T20:40:21.015Z,17.40
2022-09-29T20:42:48.801Z,18.52
2022-09-29T20:45:16.316Z,17.85
2022-09-29T20:47:43.136Z,18.45
2022-09-29T20:50:10.210Z,19.27
2022-09-29T20:52:37.375Z,18.02
2022-09-29T20:55:04.893Z,17.67
2022-09-29T20:57:32.271Z,18.75
2022-09-29T20:59:59.382Z,17.70
2022-09-29T21:02:26.423Z,17.63
2022-09-29T21:05:11.871Z,18.00
2022-09-29T21:07:40.201Z,18.25
2022-09-29T21:10:07.778Z,18.13
2022-09-29T21:12:34.613Z,17.67
2022-09-29T21:15:02.868Z,18.30
2022-09-29T21:17:30.639Z,18.90
2022-09-29T21:19:57.593Z,18.42
2022-09-29T21:22:27.670Z,18.27
2022-09-29T21:24:55.220Z,18.42
2022-09-29T21:27:22.341Z,19.20
2022-09-29T21:29:50.323Z,19.80
2022-09-29T21:32:17.678Z,19.35
2022-09-29T21:34:44.604Z,20.08
2022-09-29T21:37:11.874Z,21.75
2022-09-29T21:39:38.735Z,23.08
2022-09-29T21:42:05.600Z,18.55
2022-09-29T21:44:34.010Z,19.52
2022-09-29T21:47:00.856Z,21.08
2022-09-29T21:49:27.718Z,21.20
2022-09-29T21:51:57.076Z,20.23
2022-09-29T21:54:26.030Z,20.70
2022-09-29T21:56:53.071Z,20.88
2022-09-29T21:59:22.810Z,18.90
2022-09-29T22:01:50.770Z,21.48
2022-09-29T22:04:18.540Z,20.15
2022-09-29T22:06:45.834Z,20.65
2022-09-29T22:09:17.069Z,20.55
2022-09-29T22:11:44.223Z,20.17
2022-09-29T22:14:12.955Z,19.50
2022-09-29T22:16:40.028Z,20.13
2022-09-29T22:19:24.182Z,18.55
2022-09-29T22:21:54.086Z,19.73
2022-09-29T22:24:21.830Z,21.30
2022-09-29T22:26:48.630Z,20.00
2022-09-29T22:29:15.706Z,20.52
2022-09-29T22:31:42.875Z,20.02
2022-09-29T22:34:11.221Z,20.10
2022-09-29T22:36:38.973Z,20.33
2022-09-29T22:39:06.826Z,19.88
2022-09-29T22:41:36.636Z,20.83
2022-09-29T22:44:04.426Z,20.10
2022-09-29T22:46:33.069Z,18.35
2022-09-29T22:49:00.209Z,20.23
2022-09-29T22:51:28.592Z,21.52
2022-09-29T22:53:55.412Z,21.65
2022-09-29T22:56:28.588Z,21.35
2022-09-29T22:59:01.320Z,19.88
2022-09-29T23:01:28.774Z,19.83
2022-09-29T23:03:55.765Z,20.02
2022-09-29T23:06:22.831Z,22.48
2022-09-29T23:08:49.689Z,21.98
2022-09-29T23:11:19.458Z,22.60
2022-09-29T23:13:47.364Z,21.67
2022-09-29T23:16:16.538Z,22.52
2022-09-29T23:18:46.034Z,21.90
2022-09-29T23:21:15.410Z,21.27
2022-09-29T23:23:42.322Z,22.60
2022-09-29T23:26:09.514Z,21.75
2022-09-29T23:28:36.606Z,22.60
2022-09-29T23:31:07.673Z,22.25
2022-09-29T23:33:34.668Z,22.38
2022-09-29T23:36:13.669Z,22.58
2022-09-29T23:39:00.918Z,21.73
2022-09-29T23:41:30.182Z,22.20
2022-09-29T23:43:59.267Z,22.48
2022-09-29T23:46:31.705Z,21.85
2022-09-29T23:49:00.594Z,24.20
2022-09-29T23:51:28.482Z,22.27
2022-09-29T23:53:55.263Z,24.10
2022-09-29T23:56:22.365Z,22.77
2022-09-29T23:58:49.142Z,22.70
